sensor_id;sensor_type;location;lat;lon;timestamp;pressure;altitude;pressure_sealevel;temperature;humidity
59825;BME280;45703;50.898;6.054;2023-02-20T00:00:00;101283.50;;;6.26;100.00
59825;BME280;45703;50.898;6.054;2023-02-20T00:02:25;101287.63;;;6.28;100.00
59825;BME280;45703;50.898;6.054;2023-02-20T00:04:51;101295.91;;;6.33;100.00
59825;BME280;45703;50.898;6.054;2023-02-20T00:07:16;101285.66;;;6.30;100.00
59825;BME280;45703;50.898;6.054;2023-02-20T00:09:41;101285.31;;;6.33;100.00
59825;BME280;45703;50.898;6.054;2023-02-20T00:12:07;101275.69;;;6.32;100.00
59825;BME280;45703;50.898;6.054;2023-02-20T00:14:32;101246.56;;;6.16;100.00
59825;BME280;45703;50.898;6.054;2023-02-20T00:16:58;101253.50;;;6.25;100.00
59825;BME280;45703;50.898;6.054;2023-02-20T00:19:25;101270.41;;;6.24;100.00
59825;BME280;45703;50.898;6.054;2023-02-20T00:21:51;101283.50;;;6.26;100.00
59825;BME280;45703;50.898;6.054;2023-02-20T00:24:17;101265.63;;;6.28;100.00
59825;BME280;45703;50.898;6.054;2023-02-20T00:26:52;101265.44;;;6.21;100.00
59825;BME280;45703;50.898;6.054;2023-02-20T00:29:20;101254.84;;;6.21;100.00
59825;BME280;45703;50.898;6.054;2023-02-20T00:31:56;101255.34;;;6.25;100.00
59825;BME280;45703;50.898;6.054;2023-02-20T00:34:23;101242.59;;;6.20;100.00
59825;BME280;45703;50.898;6.054;2023-02-20T00:36:50;101242.25;;;6.23;100.00
59825;BME280;45703;50.898;6.054;2023-02-20T00:39:15;101253.00;;;6.30;100.00
59825;BME280;45703;50.898;6.054;2023-02-20T00:41:41;101249.38;;;6.31;100.00
59825;BME280;45703;50.898;6.054;2023-02-20T00:44:06;101243.22;;;6.30;100.00
59825;BME280;45703;50.898;6.054;2023-02-20T00:46:32;101235.09;;;6.32;100.00
59825;BME280;45703;50.898;6.054;2023-02-20T00:48:58;101242.88;;;6.33;100.00
59825;BME280;45703;50.898;6.054;2023-02-20T00:51:24;101242.22;;;6.39;100.00
59825;BME280;45703;50.898;6.054;2023-02-20T00:53:49;101223.97;;;6.36;100.00
59825;BME280;45703;50.898;6.054;2023-02-20T00:56:15;101227.31;;;6.30;100.00
59825;BME280;45703;50.898;6.054;2023-02-20T00:58:40;101214.56;;;6.26;100.00
59825;BME280;45703;50.898;6.054;2023-02-20T01:01:06;101217.00;;;6.35;100.00
59825;BME280;45703;50.898;6.054;2023-02-20T01:03:32;101207.75;;;6.31;100.00
59825;BME280;45703;50.898;6.054;2023-02-20T01:05:57;101209.41;;;6.32;100.00
59825;BME280;45703;50.898;6.054;2023-02-20T01:08:23;101204.94;;;6.33;100.00
59825;BME280;45703;50.898;6.054;2023-02-20T01:10:48;101208.41;;;6.33;100.00
59825;BME280;45703;50.898;6.054;2023-02-20T01:13:14;101209.06;;;6.35;100.00
59825;BME280;45703;50.898;6.054;2023-02-20T01:15:40;101213.03;;;6.31;100.00
59825;BME280;45703;50.898;6.054;2023-02-20T01:18:05;101195.81;;;6.27;100.00
59825;BME280;45703;50.898;6.054;2023-02-20T01:20:31;101203.09;;;6.33;100.00
59825;BME280;45703;50.898;6.054;2023-02-20T01:22:57;101187.53;;;6.30;100.00
59825;BME280;45703;50.898;6.054;2023-02-20T01:25:22;101197.13;;;6.31;100.00
59825;BME280;45703;50.898;6.054;2023-02-20T01:27:48;101193.16;;;6.35;100.00
59825;BME280;45703;50.898;6.054;2023-02-20T01:30:13;101190.84;;;6.32;100.00
59825;BME280;45703;50.898;6.054;2023-02-20T01:32:39;101191.50;;;6.34;100.00
59825;BME280;45703;50.898;6.054;2023-02-20T01:35:05;101190.34;;;6.37;100.00
59825;BME280;45703;50.898;6.054;2023-02-20T01:37:31;101197.59;;;6.43;100.00
59825;BME280;45703;50.898;6.054;2023-02-20T01:39:56;101193.44;;;6.48;100.00
59825;BME280;45703;50.898;6.054;2023-02-20T01:42:23;101205.38;;;6.52;100.00
59825;BME280;45703;50.898;6.054;2023-02-20T01:44:49;101187.53;;;6.38;100.00
59825;BME280;45703;50.898;6.054;2023-02-20T01:47:17;101194.09;;;6.50;100.00
59825;BME280;45703;50.898;6.054;2023-02-20T01:52:20;101190.16;;;6.46;100.00
59825;BME280;45703;50.898;6.054;2023-02-20T01:54:52;101188.31;;;6.47;100.00
59825;BME280;45703;50.898;6.054;2023-02-20T01:57:21;101181.84;;;6.49;100.00
59825;BME280;45703;50.898;6.054;2023-02-20T01:59:49;101175.03;;;6.47;100.00
59825;BME280;45703;50.898;6.054;2023-02-20T02:02:16;101170.38;;;6.49;100.00
59825;BME280;45703;50.898;6.054;2023-02-20T02:04:43;101177.19;;;6.51;100.00
59825;BME280;45703;50.898;6.054;2023-02-20T02:07:09;101170.56;;;6.47;100.00
59825;BME280;45703;50.898;6.054;2023-02-20T02:09:54;101175.69;;;6.49;100.00
59825;BME280;45703;50.898;6.054;2023-02-20T02:12:22;101177.53;;;6.48;100.00
59825;BME280;45703;50.898;6.054;2023-02-20T02:14:47;101184.84;;;6.46;100.00
59825;BME280;45703;50.898;6.054;2023-02-20T02:39:52;101154.03;;;6.37;100.00
59825;BME280;45703;50.898;6.054;2023-02-20T02:42:25;101152.56;;;6.35;100.00
59825;BME280;45703;50.898;6.054;2023-02-20T02:44:59;101136.34;;;6.30;100.00
59825;BME280;45703;50.898;6.054;2023-02-20T02:47:32;101137.34;;;6.29;100.00
59825;BME280;45703;50.898;6.054;2023-02-20T02:52:28;101130.88;;;6.23;100.00
59825;BME280;45703;50.898;6.054;2023-02-20T02:55:15;101117.97;;;6.20;100.00
59825;BME280;45703;50.898;6.054;2023-02-20T02:57:41;101116.16;;;6.21;100.00
59825;BME280;45703;50.898;6.054;2023-02-20T03:05:51;101070.59;;;6.17;100.00
59825;BME280;45703;50.898;6.054;2023-02-20T03:08:33;101060.03;;;6.09;100.00
59825;BME280;45703;50.898;6.054;2023-02-20T03:11:21;101071.28;;;6.11;100.00
59825;BME280;45703;50.898;6.054;2023-02-20T03:13:56;101070.44;;;6.11;100.00
59825;BME280;45703;50.898;6.054;2023-02-20T03:19:18;101074.63;;;6.05;100.00
59825;BME280;45703;50.898;6.054;2023-02-20T03:21:47;101077.75;;;6.09;100.00
59825;BME280;45703;50.898;6.054;2023-02-20T03:24:13;101067.84;;;6.03;100.00
59825;BME280;45703;50.898;6.054;2023-02-20T03:26:41;101080.63;;;5.99;100.00
59825;BME280;45703;50.898;6.054;2023-02-20T03:29:18;101073.31;;;6.01;100.00
59825;BME280;45703;50.898;6.054;2023-02-20T03:32:09;101068.03;;;6.01;100.00
59825;BME280;45703;50.898;6.054;2023-02-20T03:34:55;101064.38;;;6.02;100.00
59825;BME280;45703;50.898;6.054;2023-02-20T03:37:42;101064.72;;;5.99;100.00
59825;BME280;45703;50.898;6.054;2023-02-20T03:40:30;101055.91;;;5.99;100.00
59825;BME280;45703;50.898;6.054;2023-02-20T03:43:17;101056.56;;;6.01;100.00
59825;BME280;45703;50.898;6.054;2023-02-20T03:46:12;101053.78;;;6.02;100.00
59825;BME280;45703;50.898;6.054;2023-02-20T03:48:42;101052.94;;;6.02;100.00
59825;BME280;45703;50.898;6.054;2023-02-20T03:51:10;101058.88;;;6.04;100.00
59825;BME280;45703;50.898;6.054;2023-02-20T03:53:36;101051.28;;;6.01;100.00
59825;BME280;45703;50.898;6.054;2023-02-20T03:56:06;101055.88;;;6.07;100.00
59825;BME280;45703;50.898;6.054;2023-02-20T03:58:36;101057.53;;;6.08;100.00
59825;BME280;45703;50.898;6.054;2023-02-20T04:01:04;101046.47;;;6.04;100.00
59825;BME280;45703;50.898;6.054;2023-02-20T04:03:34;101056.38;;;6.10;100.00
59825;BME280;45703;50.898;6.054;2023-02-20T04:06:05;101043.97;;;6.03;100.00
59825;BME280;45703;50.898;6.054;2023-02-20T04:08:43;101042.50;;;6.00;100.00
59825;BME280;45703;50.898;6.054;2023-02-20T04:11:31;101048.47;;;6.02;100.00
59825;BME280;45703;50.898;6.054;2023-02-20T04:13:59;101043.84;;;5.96;100.00
59825;BME280;45703;50.898;6.054;2023-02-20T04:16:26;101037.72;;;5.96;100.00
59825;BME280;45703;50.898;6.054;2023-02-20T04:18:52;101046.31;;;5.98;100.00
59825;BME280;45703;50.898;6.054;2023-02-20T04:21:22;101056.13;;;5.97;100.00
59825;BME280;45703;50.898;6.054;2023-02-20T04:24:00;101047.81;;;6.00;100.00
59825;BME280;45703;50.898;6.054;2023-02-20T04:26:27;101046.16;;;5.99;100.00
59825;BME280;45703;50.898;6.054;2023-02-20T04:28:53;101056.41;;;6.02;100.00
59825;BME280;45703;50.898;6.054;2023-02-20T04:31:19;101050.47;;;6.00;100.00
59825;BME280;45703;50.898;6.054;2023-02-20T04:33:45;101056.06;;;6.05;100.00
59825;BME280;45703;50.898;6.054;2023-02-20T04:36:11;101053.59;;;6.04;100.00
59825;BME280;45703;50.898;6.054;2023-02-20T04:38:36;101041.47;;;6.09;100.00
59825;BME280;45703;50.898;6.054;2023-02-20T04:41:02;101042.47;;;6.08;100.00
59825;BME280;45703;50.898;6.054;2023-02-20T04:43:27;101039.97;;;6.07;100.00
59825;BME280;45703;50.898;6.054;2023-02-20T04:45:52;101040.81;;;6.07;100.00
59825;BME280;45703;50.898;6.054;2023-02-20T04:48:18;101038.53;;;6.04;100.00
59825;BME280;45703;50.898;6.054;2023-02-20T04:50:43;101030.91;;;6.01;100.00
59825;BME280;45703;50.898;6.054;2023-02-20T04:53:09;101032.22;;;6.05;100.00
59825;BME280;45703;50.898;6.054;2023-02-20T04:55:34;101020.31;;;6.01;100.00
59825;BME280;45703;50.898;6.054;2023-02-20T04:57:59;101037.88;;;6.02;100.00
59825;BME280;45703;50.898;6.054;2023-02-20T05:00:25;101032.91;;;5.99;100.00
59825;BME280;45703;50.898;6.054;2023-02-20T05:02:52;101037.03;;;6.02;100.00
59825;BME280;45703;50.898;6.054;2023-02-20T05:05:27;101030.97;;;5.93;100.00
59825;BME280;45703;50.898;6.054;2023-02-20T05:08:04;101035.03;;;6.04;100.00
59825;BME280;45703;50.898;6.054;2023-02-20T05:10:31;101045.16;;;6.00;100.00
59825;BME280;45703;50.898;6.054;2023-02-20T05:12:57;101040.53;;;6.02;100.00
59825;BME280;45703;50.898;6.054;2023-02-20T05:15:23;101041.53;;;6.01;100.00
59825;BME280;45703;50.898;6.054;2023-02-20T05:17:49;101047.16;;;5.98;100.00
59825;BME280;45703;50.898;6.054;2023-02-20T05:20:15;101057.41;;;6.01;100.00
59825;BME280;45703;50.898;6.054;2023-02-20T05:22:41;101034.56;;;6.00;100.00
59825;BME280;45703;50.898;6.054;2023-02-20T05:25:07;101044.84;;;5.95;100.00
59825;BME280;45703;50.898;6.054;2023-02-20T05:27:33;101048.31;;;5.96;100.00
59825;BME280;45703;50.898;6.054;2023-02-20T05:29:59;101048.97;;;5.98;100.00
59825;BME280;45703;50.898;6.054;2023-02-20T05:32:28;101045.50;;;5.97;100.00
59825;BME280;45703;50.898;6.054;2023-02-20T05:34:54;101046.31;;;5.98;100.00
59825;BME280;45703;50.898;6.054;2023-02-20T05:37:21;101040.38;;;5.96;100.00
59825;BME280;45703;50.898;6.054;2023-02-20T05:39:47;101048.50;;;5.94;100.00
59825;BME280;45703;50.898;6.054;2023-02-20T05:42:13;101043.22;;;5.94;100.00
59825;BME280;45703;50.898;6.054;2023-02-20T05:44:38;101048.19;;;5.89;100.00
59825;BME280;45703;50.898;6.054;2023-02-20T05:47:04;101052.66;;;5.89;100.00
59825;BME280;45703;50.898;6.054;2023-02-20T05:49:30;101033.97;;;5.82;100.00
59825;BME280;45703;50.898;6.054;2023-02-20T05:51:57;101030.50;;;5.82;100.00
59825;BME280;45703;50.898;6.054;2023-02-20T05:54:23;101045.41;;;5.83;100.00
59825;BME280;45703;50.898;6.054;2023-02-20T05:56:49;101047.56;;;5.79;100.00
59825;BME280;45703;50.898;6.054;2023-02-20T05:59:17;101044.22;;;5.77;100.00
59825;BME280;45703;50.898;6.054;2023-02-20T06:01:43;101037.59;;;5.73;100.00
59825;BME280;45703;50.898;6.054;2023-02-20T06:04:08;101037.94;;;5.70;100.00
59825;BME280;45703;50.898;6.054;2023-02-20T06:06:36;101044.09;;;5.71;100.00
59825;BME280;45703;50.898;6.054;2023-02-20T06:09:03;101039.13;;;5.68;100.00
59825;BME280;45703;50.898;6.054;2023-02-20T06:11:32;101042.44;;;5.70;100.00
59825;BME280;45703;50.898;6.054;2023-02-20T06:13:58;101040.94;;;5.67;100.00
59825;BME280;45703;50.898;6.054;2023-02-20T06:16:28;101035.63;;;5.67;100.00
59825;BME280;45703;50.898;6.054;2023-02-20T06:18:54;101038.28;;;5.67;100.00
59825;BME280;45703;50.898;6.054;2023-02-20T06:21:20;101036.63;;;5.66;100.00
59825;BME280;45703;50.898;6.054;2023-02-20T06:23:47;101045.59;;;5.65;100.00
59825;BME280;45703;50.898;6.054;2023-02-20T06:26:13;101038.94;;;5.69;100.00
59825;BME280;45703;50.898;6.054;2023-02-20T06:28:39;101037.63;;;5.65;100.00
59825;BME280;45703;50.898;6.054;2023-02-20T06:31:05;101046.44;;;5.66;100.00
59825;BME280;45703;50.898;6.054;2023-02-20T06:33:31;101049.56;;;5.62;100.00
59825;BME280;45703;50.898;6.054;2023-02-20T06:35:56;101045.59;;;5.65;100.00
59825;BME280;45703;50.898;6.054;2023-02-20T06:38:22;101045.59;;;5.65;100.00
59825;BME280;45703;50.898;6.054;2023-02-20T06:40:48;101039.63;;;5.63;100.00
59825;BME280;45703;50.898;6.054;2023-02-20T06:43:13;101042.63;;;5.61;100.00
59825;BME280;45703;50.898;6.054;2023-02-20T06:45:39;101048.72;;;5.61;100.00
59825;BME280;45703;50.898;6.054;2023-02-20T06:48:04;101055.53;;;5.63;100.00
59825;BME280;45703;50.898;6.054;2023-02-20T06:50:30;101056.19;;;5.58;100.00
59825;BME280;45703;50.898;6.054;2023-02-20T06:52:55;101065.47;;;5.62;100.00
59825;BME280;45703;50.898;6.054;2023-02-20T06:55:21;101059.50;;;5.60;100.00
59825;BME280;45703;50.898;6.054;2023-02-20T06:57:46;101073.41;;;5.62;100.00
59825;BME280;45703;50.898;6.054;2023-02-20T07:00:12;101081.84;;;5.65;100.00
59825;BME280;45703;50.898;6.054;2023-02-20T07:02:38;101083.66;;;5.64;100.00
59825;BME280;45703;50.898;6.054;2023-02-20T07:05:04;101083.66;;;5.64;100.00
59825;BME280;45703;50.898;6.054;2023-02-20T07:07:30;101081.00;;;5.64;100.00
59825;BME280;45703;50.898;6.054;2023-02-20T07:09:55;101073.25;;;5.55;100.00
59825;BME280;45703;50.898;6.054;2023-02-20T07:12:21;101086.31;;;5.64;100.00
59825;BME280;45703;50.898;6.054;2023-02-20T07:14:46;101089.63;;;5.66;100.00
59825;BME280;45703;50.898;6.054;2023-02-20T07:17:14;101089.63;;;5.66;100.00
59825;BME280;45703;50.898;6.054;2023-02-20T07:19:39;101091.28;;;5.67;100.00
59825;BME280;45703;50.898;6.054;2023-02-20T07:22:05;101093.41;;;5.72;100.00
59825;BME280;45703;50.898;6.054;2023-02-20T07:24:30;101080.34;;;5.70;100.00
59825;BME280;45703;50.898;6.054;2023-02-20T07:26:55;101090.59;;;5.73;100.00
59825;BME280;45703;50.898;6.054;2023-02-20T07:29:21;101081.66;;;5.74;100.00
59825;BME280;45703;50.898;6.054;2023-02-20T07:31:46;101090.25;;;5.76;100.00
59825;BME280;45703;50.898;6.054;2023-02-20T07:34:12;101078.00;;;5.75;100.00
59825;BME280;45703;50.898;6.054;2023-02-20T07:36:37;101083.00;;;5.78;100.00
59825;BME280;45703;50.898;6.054;2023-02-20T07:39:03;101088.94;;;5.80;100.00
59825;BME280;45703;50.898;6.054;2023-02-20T07:41:30;101093.25;;;5.81;100.00
59825;BME280;45703;50.898;6.054;2023-02-20T07:43:57;101106.00;;;5.86;100.00
59825;BME280;45703;50.898;6.054;2023-02-20T07:46:22;101094.75;;;5.84;100.00
59825;BME280;45703;50.898;6.054;2023-02-20T07:48:48;101092.59;;;5.87;100.00
59825;BME280;45703;50.898;6.054;2023-02-20T07:51:13;101091.91;;;5.85;100.00
59825;BME280;45703;50.898;6.054;2023-02-20T07:53:39;101099.00;;;5.93;100.00
59825;BME280;45703;50.898;6.054;2023-02-20T07:56:05;101096.22;;;5.94;100.00
59825;BME280;45703;50.898;6.054;2023-02-20T07:58:30;101084.97;;;5.92;100.00
59825;BME280;45703;50.898;6.054;2023-02-20T08:00:56;101094.03;;;5.98;100.00
59825;BME280;45703;50.898;6.054;2023-02-20T08:03:21;101097.19;;;6.01;100.00
59825;BME280;45703;50.898;6.054;2023-02-20T08:05:47;101100.16;;;5.98;100.00
59825;BME280;45703;50.898;6.054;2023-02-20T08:08:12;101093.69;;;6.01;100.00
59825;BME280;45703;50.898;6.054;2023-02-20T08:10:38;101098.63;;;6.04;100.00
59825;BME280;45703;50.898;6.054;2023-02-20T08:13:03;101090.69;;;6.04;100.00
59825;BME280;45703;50.898;6.054;2023-02-20T08:15:29;101109.56;;;6.09;100.00
59825;BME280;45703;50.898;6.054;2023-02-20T08:17:55;101102.94;;;6.13;100.00
59825;BME280;45703;50.898;6.054;2023-02-20T08:20:21;101093.50;;;6.10;100.00
59825;BME280;45703;50.898;6.054;2023-02-20T08:22:48;101102.09;;;6.12;100.00
59825;BME280;45703;50.898;6.054;2023-02-20T08:25:15;101102.94;;;6.13;100.00
59825;BME280;45703;50.898;6.054;2023-02-20T08:27:42;101117.66;;;6.15;100.00
59825;BME280;45703;50.898;6.054;2023-02-20T08:30:14;101107.91;;;6.16;100.00
59825;BME280;45703;50.898;6.054;2023-02-20T08:32:40;101106.56;;;6.20;100.00
59825;BME280;45703;50.898;6.054;2023-02-20T08:35:06;101100.25;;;6.21;100.00
59825;BME280;45703;50.898;6.054;2023-02-20T08:37:31;101098.41;;;6.21;100.00
59825;BME280;45703;50.898;6.054;2023-02-20T08:39:56;101102.56;;;6.24;100.00
59825;BME280;45703;50.898;6.054;2023-02-20T08:42:22;101114.97;;;6.23;100.00
59825;BME280;45703;50.898;6.054;2023-02-20T08:44:47;101115.81;;;6.24;100.00
59825;BME280;45703;50.898;6.054;2023-02-20T08:47:12;101113.31;;;6.22;100.00
59825;BME280;45703;50.898;6.054;2023-02-20T08:49:38;101105.38;;;6.22;100.00
59825;BME280;45703;50.898;6.054;2023-02-20T08:52:04;101094.94;;;6.21;100.00
59825;BME280;45703;50.898;6.054;2023-02-20T08:54:30;101097.41;;;6.22;100.00
59825;BME280;45703;50.898;6.054;2023-02-20T08:56:56;101121.94;;;6.24;100.00
59825;BME280;45703;50.898;6.054;2023-02-20T08:59:21;101117.59;;;6.31;100.00
59825;BME280;45703;50.898;6.054;2023-02-20T09:01:47;101122.72;;;6.33;100.00
59825;BME280;45703;50.898;6.054;2023-02-20T09:04:12;101115.94;;;6.30;100.00
59825;BME280;45703;50.898;6.054;2023-02-20T09:06:37;101124.69;;;6.39;100.00
59825;BME280;45703;50.898;6.054;2023-02-20T09:09:03;101113.28;;;6.38;100.00
59825;BME280;45703;50.898;6.054;2023-02-20T09:11:29;101114.56;;;6.42;100.00
59825;BME280;45703;50.898;6.054;2023-02-20T09:13:54;101109.28;;;6.42;100.00
59825;BME280;45703;50.898;6.054;2023-02-20T09:16:22;101110.88;;;6.51;100.00
59825;BME280;45703;50.898;6.054;2023-02-20T09:18:48;101113.53;;;6.51;100.00
59825;BME280;45703;50.898;6.054;2023-02-20T09:21:16;101108.53;;;6.56;100.00
59825;BME280;45703;50.898;6.054;2023-02-20T09:23:42;101121.09;;;6.62;99.96
59825;BME280;45703;50.898;6.054;2023-02-20T09:26:07;101124.03;;;6.67;99.20
59825;BME280;45703;50.898;6.054;2023-02-20T09:28:33;101117.38;;;6.71;99.23
59825;BME280;45703;50.898;6.054;2023-02-20T09:30:59;101116.38;;;6.72;99.22
59825;BME280;45703;50.898;6.054;2023-02-20T09:33:25;101119.34;;;6.77;99.29
59825;BME280;45703;50.898;6.054;2023-02-20T09:35:51;101117.22;;;6.73;98.83
59825;BME280;45703;50.898;6.054;2023-02-20T09:38:22;101116.97;;;6.82;98.62
59825;BME280;45703;50.898;6.054;2023-02-20T09:40:53;101122.78;;;6.86;98.47
59825;BME280;45703;50.898;6.054;2023-02-20T09:51:14;101104.31;;;6.92;97.89
59825;BME280;45703;50.898;6.054;2023-02-20T09:54:19;101107.91;;;6.99;97.95
59825;BME280;45703;50.898;6.054;2023-02-20T09:56:53;101102.25;;;7.02;97.59
59825;BME280;45703;50.898;6.054;2023-02-20T09:59:31;101096.75;;;7.04;97.29
59825;BME280;45703;50.898;6.054;2023-02-20T10:02:08;101097.25;;;7.07;97.23
59825;BME280;45703;50.898;6.054;2023-02-20T10:04:58;101082.47;;;7.05;97.16
59825;BME280;45703;50.898;6.054;2023-02-20T10:07:30;101102.47;;;7.15;96.97
59825;BME280;45703;50.898;6.054;2023-02-20T10:09:58;101095.16;;;7.17;96.95
59825;BME280;45703;50.898;6.054;2023-02-20T10:15:19;101081.34;;;7.21;96.27
59825;BME280;45703;50.898;6.054;2023-02-20T10:20:44;101100.69;;;7.30;96.78
59825;BME280;45703;50.898;6.054;2023-02-20T10:23:38;101096.84;;;7.32;96.57
59825;BME280;45703;50.898;6.054;2023-02-20T10:26:11;101091.34;;;7.34;96.24
59825;BME280;45703;50.898;6.054;2023-02-20T10:28:38;101089.91;;;7.31;95.71
59825;BME280;45703;50.898;6.054;2023-02-20T10:33:52;101089.69;;;7.33;95.51
59825;BME280;45703;50.898;6.054;2023-02-20T10:36:46;101091.00;;;7.37;96.51
59825;BME280;45703;50.898;6.054;2023-02-20T10:39:15;101092.63;;;7.38;96.91
59825;BME280;45703;50.898;6.054;2023-02-20T10:52:27;101102.56;;;7.44;95.31
59825;BME280;45703;50.898;6.054;2023-02-20T10:55:05;101104.59;;;7.42;95.73
59825;BME280;45703;50.898;6.054;2023-02-20T10:57:44;101096.41;;;7.43;95.60
59825;BME280;45703;50.898;6.054;2023-02-20T11:00:19;101091.94;;;7.44;96.31
59825;BME280;45703;50.898;6.054;2023-02-20T11:02:53;101075.16;;;7.43;95.94
59825;BME280;45703;50.898;6.054;2023-02-20T11:05:22;101077.66;;;7.45;96.26
59825;BME280;45703;50.898;6.054;2023-02-20T11:07:50;101081.22;;;7.52;95.14
59825;BME280;45703;50.898;6.054;2023-02-20T11:10:15;101079.50;;;7.59;95.30
59825;BME280;45703;50.898;6.054;2023-02-20T11:12:50;101070.03;;;7.56;95.40
59825;BME280;45703;50.898;6.054;2023-02-20T11:15:19;101062.19;;;7.63;95.38
59825;BME280;45703;50.898;6.054;2023-02-20T11:17:48;101065.31;;;7.66;95.53
59825;BME280;45703;50.898;6.054;2023-02-20T11:22:56;101062.47;;;7.68;94.29
59825;BME280;45703;50.898;6.054;2023-02-20T11:25:26;101085.84;;;7.72;94.73
59825;BME280;45703;50.898;6.054;2023-02-20T11:27:59;101055.78;;;7.72;94.84
59825;BME280;45703;50.898;6.054;2023-02-20T11:30:34;101053.47;;;7.69;94.79
59825;BME280;45703;50.898;6.054;2023-02-20T11:33:44;101057.69;;;7.78;95.23
59825;BME280;45703;50.898;6.054;2023-02-20T11:36:07;101044.31;;;7.86;95.74
59825;BME280;45703;50.898;6.054;2023-02-20T11:38:35;101037.44;;;7.91;95.51
59825;BME280;45703;50.898;6.054;2023-02-20T11:43:35;101049.56;;;7.94;94.56
59825;BME280;45703;50.898;6.054;2023-02-20T11:46:18;101045.25;;;7.93;94.60
59825;BME280;45703;50.898;6.054;2023-02-20T11:49:04;101069.81;;;7.95;94.46
59825;BME280;45703;50.898;6.054;2023-02-20T11:51:39;101080.44;;;7.95;94.70
59825;BME280;45703;50.898;6.054;2023-02-20T11:54:23;101069.81;;;7.95;94.34
59825;BME280;45703;50.898;6.054;2023-02-20T11:57:01;101067.97;;;7.95;94.69
59825;BME280;45703;50.898;6.054;2023-02-20T11:59:39;101050.19;;;7.96;94.45
59825;BME280;45703;50.898;6.054;2023-02-20T12:05:05;101037.53;;;7.98;94.84
59825;BME280;45703;50.898;6.054;2023-02-20T12:10:10;101029.81;;;8.03;94.84
59825;BME280;45703;50.898;6.054;2023-02-20T12:12:40;101042.91;;;8.04;94.82
59825;BME280;45703;50.898;6.054;2023-02-20T12:15:15;101026.53;;;8.01;94.90
59825;BME280;45703;50.898;6.054;2023-02-20T12:21:09;101017.16;;;8.05;95.29
59825;BME280;45703;50.898;6.054;2023-02-20T12:31:56;101003.66;;;8.06;95.84
59825;BME280;45703;50.898;6.054;2023-02-20T12:34:53;100999.81;;;8.09;95.54
59825;BME280;45703;50.898;6.054;2023-02-20T12:42:47;100979.44;;;8.16;96.00
59825;BME280;45703;50.898;6.054;2023-02-20T12:54:01;100964.66;;;8.28;96.33
59825;BME280;45703;50.898;6.054;2023-02-20T12:56:40;100970.25;;;8.33;96.20
59825;BME280;45703;50.898;6.054;2023-02-20T13:02:26;100966.78;;;8.32;96.12
59825;BME280;45703;50.898;6.054;2023-02-20T13:04:56;100943.63;;;8.33;96.21
59825;BME280;45703;50.898;6.054;2023-02-20T13:10:18;100928.94;;;8.37;96.36
59825;BME280;45703;50.898;6.054;2023-02-20T13:12:48;100928.38;;;8.41;96.39
59825;BME280;45703;50.898;6.054;2023-02-20T13:18:22;100946.06;;;8.49;96.45
59825;BME280;45703;50.898;6.054;2023-02-20T13:20:52;100922.31;;;8.47;96.46
59825;BME280;45703;50.898;6.054;2023-02-20T13:25:49;100892.25;;;8.53;97.11
59825;BME280;45703;50.898;6.054;2023-02-20T13:28:39;100924.00;;;8.55;96.98
59825;BME280;45703;50.898;6.054;2023-02-20T13:31:12;100914.63;;;8.58;96.74
59825;BME280;45703;50.898;6.054;2023-02-20T13:33:40;100908.94;;;8.61;96.83
59825;BME280;45703;50.898;6.054;2023-02-20T13:46:59;100885.16;;;8.60;95.75
59825;BME280;45703;50.898;6.054;2023-02-20T13:52:29;100878.63;;;8.62;95.83
59825;BME280;45703;50.898;6.054;2023-02-20T13:54:56;100889.28;;;8.62;95.65
59825;BME280;45703;50.898;6.054;2023-02-20T13:57:23;100893.75;;;8.62;95.64
59825;BME280;45703;50.898;6.054;2023-02-20T13:59:53;100900.34;;;8.66;95.74
59825;BME280;45703;50.898;6.054;2023-02-20T14:02:21;100894.47;;;8.70;95.23
59825;BME280;45703;50.898;6.054;2023-02-20T14:07:42;100866.00;;;8.71;94.93
59825;BME280;45703;50.898;6.054;2023-02-20T14:12:44;100858.28;;;8.82;93.91
59825;BME280;45703;50.898;6.054;2023-02-20T14:15:09;100843.78;;;8.85;93.22
59825;BME280;45703;50.898;6.054;2023-02-20T14:17:35;100859.78;;;8.91;93.35
59825;BME280;45703;50.898;6.054;2023-02-20T14:20:05;100853.31;;;9.00;93.75
59825;BME280;45703;50.898;6.054;2023-02-20T14:22:34;100835.91;;;9.04;92.88
59825;BME280;45703;50.898;6.054;2023-02-20T14:27:42;100820.94;;;9.03;92.28
59825;BME280;45703;50.898;6.054;2023-02-20T14:30:10;100813.97;;;9.02;91.99
59825;BME280;45703;50.898;6.054;2023-02-20T14:32:37;100806.38;;;8.99;91.93
59825;BME280;45703;50.898;6.054;2023-02-20T14:35:29;100829.34;;;9.07;92.50
59825;BME280;45703;50.898;6.054;2023-02-20T14:38:18;100830.81;;;9.09;92.74
59825;BME280;45703;50.898;6.054;2023-02-20T14:40:47;100825.28;;;9.11;93.11
59825;BME280;45703;50.898;6.054;2023-02-20T14:45:43;100810.13;;;9.11;92.37
59825;BME280;45703;50.898;6.054;2023-02-20T14:48:25;100813.47;;;9.20;93.17
59825;BME280;45703;50.898;6.054;2023-02-20T14:51:13;100811.19;;;9.23;92.19
59825;BME280;45703;50.898;6.054;2023-02-20T14:53:40;100810.19;;;9.24;92.14
59825;BME280;45703;50.898;6.054;2023-02-20T14:56:25;100806.94;;;9.29;92.29
59825;BME280;45703;50.898;6.054;2023-02-20T14:58:51;100800.38;;;9.31;91.78
59825;BME280;45703;50.898;6.054;2023-02-20T15:04:03;100790.09;;;9.28;91.36
59825;BME280;45703;50.898;6.054;2023-02-20T15:06:33;100784.78;;;9.28;91.27
59825;BME280;45703;50.898;6.054;2023-02-20T15:09:00;100775.97;;;9.28;90.74
59825;BME280;45703;50.898;6.054;2023-02-20T15:11:26;100778.44;;;9.29;90.92
59825;BME280;45703;50.898;6.054;2023-02-20T15:13:53;100783.13;;;9.27;90.81
59825;BME280;45703;50.898;6.054;2023-02-20T15:16:31;100809.38;;;9.24;90.90
59825;BME280;45703;50.898;6.054;2023-02-20T15:19:00;100814.66;;;9.17;91.17
59825;BME280;45703;50.898;6.054;2023-02-20T15:21:55;100821.22;;;9.21;91.29